createdAt,value
2022-09-28T00:02:35.682Z,96867.40
2022-09-28T00:09:21.918Z,96861.40
2022-09-28T00:15:08.082Z,96858.80
2022-09-28T00:20:33.233Z,96853.40
2022-09-28T00:26:08.712Z,96854.60
2022-09-28T00:32:51.927Z,96854.20
2022-09-28T00:38:47.267Z,96843.20
2022-09-28T00:44:50.242Z,96835.80
2022-09-28T00:51:41.837Z,96837.60
2022-09-28T00:57:24.712Z,96838.20
2022-09-28T01:03:06.837Z,96848.00
2022-09-28T01:08:50.799Z,96846.60
2022-09-28T01:15:36.518Z,96852.20
2022-09-28T01:21:28.457Z,96849.20
2022-09-28T01:28:25.379Z,96860.00
2022-09-28T01:35:35.927Z,96855.80
2022-09-28T01:41:35.989Z,96853.60
2022-09-28T01:47:07.009Z,96853.80
2022-09-28T01:53:13.430Z,96858.00
2022-09-28T01:59:03.711Z,96855.40
2022-09-28T02:04:36.189Z,96857.20
2022-09-28T02:11:24.701Z,96858.40
2022-09-28T02:18:09.988Z,96851.00
2022-09-28T02:24:47.923Z,96842.20
2022-09-28T02:30:22.355Z,96856.60
2022-09-28T02:36:17.209Z,96859.20
2022-09-28T02:43:07.840Z,96866.20
2022-09-28T02:50:21.417Z,96868.00
2022-09-28T02:56:46.311Z,96864.60
2022-09-28T03:03:02.332Z,96865.00
2022-09-28T03:10:03.016Z,96858.20
2022-09-28T03:15:48.863Z,96862.80
2022-09-28T03:21:14.967Z,96869.00
2022-09-28T03:26:42.512Z,96873.20
2022-09-28T03:32:15.080Z,96872.00
2022-09-28T03:37:48.106Z,96869.40
2022-09-28T03:43:34.662Z,96871.00
2022-09-28T03:49:00.320Z,96876.20
2022-09-28T03:54:39.395Z,96878.20
2022-09-28T04:00:30.838Z,96884.80
2022-09-28T04:06:19.833Z,96876.40
2022-09-28T04:12:04.356Z,96873.60
2022-09-28T04:17:39.187Z,96872.00
2022-09-28T04:23:17.417Z,96877.00
2022-09-28T04:29:21.050Z,96873.80
2022-09-28T04:35:06.810Z,96879.80
2022-09-28T04:40:33.195Z,96878.80
2022-09-28T04:46:11.681Z,96875.00
2022-09-28T04:51:42.605Z,96873.60
2022-09-28T04:57:36.146Z,96874.00
2022-09-28T05:03:00.646Z,96875.00
2022-09-28T05:09:07.407Z,96871.00
2022-09-28T05:14:43.346Z,96869.20
2022-09-28T05:20:21.433Z,96870.40
2022-09-28T05:26:08.150Z,96854.80
2022-09-28T05:32:54.080Z,96869.20
2022-09-28T05:38:44.610Z,96867.00
2022-09-28T05:44:26.782Z,96870.40
2022-09-28T05:50:50.490Z,96869.00
2022-09-28T05:57:36.193Z,96873.00
2022-09-28T06:04:39.282Z,96876.00
2022-09-28T06:10:30.178Z,96881.80
2022-09-28T06:16:44.614Z,96867.80
2022-09-28T06:23:25.461Z,96868.80
2022-09-28T06:30:28.609Z,96865.00
2022-09-28T06:36:21.128Z,96854.20
2022-09-28T06:42:53.906Z,96855.00
2022-09-28T06:48:45.137Z,96850.80
2022-09-28T06:54:25.976Z,96853.40
2022-09-28T07:00:14.124Z,96866.00
2022-09-28T07:05:54.084Z,96868.20
2022-09-28T07:12:21.427Z,96869.60
2022-09-28T07:19:24.792Z,96868.20
2022-09-28T07:26:28.083Z,96874.20
2022-09-28T07:33:31.439Z,96871.60
2022-09-28T07:40:33.015Z,96869.40
2022-09-28T07:47:36.298Z,96864.00
2022-09-28T07:54:45.480Z,96871.20
2022-09-28T08:01:51.579Z,96871.00
2022-09-28T08:07:58.013Z,96870.00
2022-09-28T08:13:45.832Z,96871.00
2022-09-28T08:20:17.105Z,96864.80
2022-09-28T08:26:01.815Z,96857.60
2022-09-28T08:31:35.384Z,96853.20
2022-09-28T08:37:26.616Z,96853.80
2022-09-28T08:43:53.977Z,96851.20
2022-09-28T08:49:47.099Z,96855.00
2022-09-28T08:55:40.054Z,96854.00
2022-09-28T09:01:51.537Z,96858.00
2022-09-28T09:08:55.144Z,96848.20
2022-09-28T09:16:19.233Z,96842.20
2022-09-28T09:23:40.123Z,96854.60
2022-09-28T09:30:57.905Z,96859.60
2022-09-28T09:37:16.812Z,96860.20
2022-09-28T09:45:01.189Z,96847.40
2022-09-28T09:52:28.441Z,96850.40
2022-09-28T09:58:48.942Z,96859.80
2022-09-28T10:04:57.996Z,96860.60
2022-09-28T10:11:22.152Z,96837.00
2022-09-28T10:17:27.450Z,96837.00
2022-09-28T10:24:48.614Z,96829.20
2022-09-28T10:31:50.300Z,96816.20
2022-09-28T10:39:02.264Z,96812.20
2022-09-28T10:46:05.653Z,96808.80
2022-09-28T10:53:09.982Z,96799.40
2022-09-28T11:00:25.109Z,96792.60
2022-09-28T11:07:01.077Z,96779.00
2022-09-28T11:13:45.511Z,96774.60
2022-09-28T11:21:00.384Z,96771.40
2022-09-28T11:27:23.532Z,96762.40
2022-09-28T11:33:41.646Z,96754.00
2022-09-28T11:40:26.891Z,96755.00
2022-09-28T11:46:58.912Z,96760.20
2022-09-28T11:53:36.005Z,96745.40
2022-09-28T12:00:08.887Z,96738.60
2022-09-28T12:05:57.003Z,96747.80
2022-09-28T12:12:35.634Z,96741.40
2022-09-28T12:18:08.048Z,96736.80
2022-09-28T12:23:36.493Z,96747.40
2022-09-28T12:29:10.471Z,96744.20
2022-09-28T12:34:44.250Z,96749.40
2022-09-28T12:40:21.809Z,96745.80
2022-09-28T12:46:17.171Z,96724.40
2022-09-28T12:52:29.060Z,96715.40
2022-09-28T12:58:42.206Z,96722.20
2022-09-28T13:04:51.369Z,96710.60
2022-09-28T13:10:50.806Z,96715.40
2022-09-28T13:17:01.563Z,96716.80
2022-09-28T13:23:26.882Z,96712.60
2022-09-28T13:29:27.273Z,96708.40
2022-09-28T13:35:33.577Z,96699.60
2022-09-28T13:41:47.543Z,96701.00
2022-09-28T13:48:01.590Z,96695.00
2022-09-28T13:54:17.409Z,96692.20
2022-09-28T14:00:45.578Z,96689.60
2022-09-28T14:06:55.466Z,96680.00
2022-09-28T14:13:13.613Z,96678.40
2022-09-28T14:18:37.343Z,96675.40
2022-09-28T14:24:22.440Z,96670.60
2022-09-28T14:29:45.872Z,96676.20
2022-09-28T14:35:39.472Z,96663.60
2022-09-28T14:41:42.086Z,96663.80
2022-09-28T14:48:04.399Z,96675.00
2022-09-28T14:53:26.687Z,96665.20
2022-09-28T14:58:58.990Z,96663.80
2022-09-28T15:04:23.872Z,96677.60
2022-09-28T15:09:53.217Z,96658.00
2022-09-28T15:15:29.893Z,96643.60
2022-09-28T15:20:55.948Z,96644.20
2022-09-28T15:26:51.298Z,96653.00
2022-09-28T15:32:36.569Z,96656.80
2022-09-28T15:37:58.540Z,96660.20
2022-09-28T15:43:33.406Z,96679.40
2022-09-28T15:49:03.234Z,96680.60
2022-09-28T15:54:35.527Z,96675.60
2022-09-28T16:00:31.603Z,96665.40
2022-09-28T16:06:25.893Z,96676.40
2022-09-28T16:12:11.028Z,96667.20
2022-09-28T16:18:25.646Z,96668.60
2022-09-28T16:24:53.494Z,96661.40
2022-09-28T16:30:21.955Z,96662.00
2022-09-28T16:36:15.248Z,96668.40
2022-09-28T16:42:05.926Z,96684.60
2022-09-28T16:49:00.681Z,96681.80
2022-09-28T16:54:58.137Z,96678.80
2022-09-28T17:00:43.854Z,96700.20
2022-09-28T17:06:12.359Z,96698.20
2022-09-28T17:11:44.666Z,96708.20
2022-09-28T17:23:00.235Z,96751.40
2022-09-28T17:28:35.414Z,96737.00
2022-09-28T17:35:22.932Z,96733.20
2022-09-28T17:41:56.540Z,96753.80
2022-09-28T17:47:33.527Z,96757.20
2022-09-28T17:53:07.988Z,96757.60
2022-09-28T17:58:39.748Z,96756.00
2022-09-28T18:05:01.059Z,96768.40
2022-09-28T18:10:57.198Z,96765.60
2022-09-28T18:16:32.279Z,96777.20
2022-09-28T18:22:10.935Z,96780.20
2022-09-28T18:27:43.759Z,96782.80
2022-09-28T18:34:27.679Z,96780.40
2022-09-28T18:40:23.726Z,96784.80
2022-09-28T18:45:58.623Z,96774.80
2022-09-28T18:51:27.055Z,96790.40
2022-09-28T18:57:53.640Z,96793.60
2022-09-28T19:03:55.179Z,96798.20
2022-09-28T19:09:44.459Z,96817.60
2022-09-28T19:15:38.071Z,96811.80
2022-09-28T19:22:25.877Z,96808.60
2022-09-28T19:28:16.434Z,96816.80
2022-09-28T19:34:52.803Z,96807.00
2022-09-28T19:41:37.799Z,96811.00
2022-09-28T19:48:09.911Z,96821.40
2022-09-28T19:54:36.711Z,96834.00
2022-09-28T20:00:11.896Z,96843.60
2022-09-28T20:06:53.676Z,96841.60
2022-09-28T20:12:31.226Z,96856.60
2022-09-28T20:17:54.352Z,96871.00
2022-09-28T20:24:12.683Z,96886.60
2022-09-28T20:30:35.426Z,96892.20
2022-09-28T20:36:22.405Z,96871.40
2022-09-28T20:41:46.374Z,96875.60
2022-09-28T20:47:11.313Z,96889.00
2022-09-28T20:52:56.504Z,96903.20
2022-09-28T20:58:25.121Z,96902.60
2022-09-28T21:04:06.860Z,96907.00
2022-09-28T21:09:32.065Z,96913.00
2022-09-28T21:14:54.462Z,96918.80
2022-09-28T21:20:17.381Z,96921.80
2022-09-28T21:25:45.696Z,96921.80
2022-09-28T21:31:17.595Z,96939.00
2022-09-28T21:36:43.639Z,96912.00
2022-09-28T21:42:13.212Z,96940.80
2022-09-28T21:47:47.633Z,96951.40
2022-09-28T21:53:24.355Z,96949.00
2022-09-28T21:58:57.218Z,96943.40
2022-09-28T22:04:21.657Z,96951.00
2022-09-28T22:10:08.509Z,96955.40
2022-09-28T22:15:30.804Z,96957.80
2022-09-28T22:21:24.979Z,96966.60
2022-09-28T22:26:47.023Z,96989.60
2022-09-28T22:32:11.823Z,96990.40
2022-09-28T22:37:53.437Z,96991.40
2022-09-28T22:43:16.763Z,97002.00
2022-09-28T22:49:00.089Z,96999.40
2022-09-28T22:54:25.194Z,97004.60
2022-09-28T22:59:47.526Z,97000.00
2022-09-28T23:05:13.620Z,97014.60
2022-09-28T23:10:58.064Z,97014.00
2022-09-28T23:16:30.484Z,97001.60
2022-09-28T23:21:54.882Z,96995.00
2022-09-28T23:27:19.626Z,96999.00
2022-09-28T23:32:42.795Z,96993.40
2022-09-28T23:38:31.850Z,97001.20
2022-09-28T23:44:14.068Z,97019.40
2022-09-28T23:49:39.423Z,97010.60
2022-09-28T23:55:23.427Z,97016.20
